Time;durP1;ratioP1;P1;durP2;ratioP2;P2;SDS_P1;SDS_P2;PMS_P1;PMS_P2;Temp;Humidity;BMP_temperature;BMP_pressure;BME280_temperature;BME280_humidity;BME280_pressure;Samples;Min_cycle;Max_cycle;Signal;HPM_P1;HPM_P2
2021/07/09 00:02:10;;;;;;;4.40;2.33;;;;;;;19.01;64.23;101508.16;5049806;28;20052;-52
2021/07/09 00:04:38;;;;;;;4.13;2.33;;;;;;;19.01;64.32;101508.16;5050997;28;20099;-48
2021/07/09 00:07:05;;;;;;;2.72;2.53;;;;;;;19.00;64.24;101506.53;5048657;28;20439;-44
2021/07/09 00:09:32;;;;;;;2.80;2.40;;;;;;;18.96;64.53;101500.06;5049770;28;20139;-44
2021/07/09 00:11:59;;;;;;;4.90;2.67;;;;;;;18.90;64.65;101502.44;5032460;28;20997;-47
2021/07/09 00:14:32;;;;;;;2.53;2.33;;;;;;;18.88;65.00;101489.97;5035035;28;20171;-44
2021/07/09 00:17:00;;;;;;;5.60;2.28;;;;;;;18.85;64.86;101495.13;5050532;28;20052;-43
2021/07/09 00:19:27;;;;;;;10.07;4.45;;;;;;;18.88;64.67;101492.78;5051555;28;20048;-44
2021/07/09 00:21:56;;;;;;;18.02;4.22;;;;;;;18.85;64.93;101495.13;5030332;28;20052;-49
2021/07/09 00:24:23;;;;;;;4.72;2.40;;;;;;;18.84;64.99;101503.94;5050577;28;20529;-46
2021/07/09 00:26:50;;;;;;;2.72;2.25;;;;;;;18.88;64.83;101501.19;5049106;28;20063;-44
2021/07/09 00:29:16;;;;;;;3.45;2.10;;;;;;;18.85;64.82;101497.13;5047807;28;20062;-45
2021/07/09 00:31:44;;;;;;;4.60;2.35;;;;;;;18.85;64.77;101497.94;5050130;28;20058;-44
2021/07/09 00:34:11;;;;;;;2.55;2.33;;;;;;;18.83;64.64;101496.72;5048949;28;20041;-43
2021/07/09 00:36:38;;;;;;;5.15;2.65;;;;;;;18.80;64.62;101498.28;5048083;28;20097;-43
2021/07/09 00:39:07;;;;;;;2.85;2.55;;;;;;;18.79;64.92;101495.88;5047801;28;20131;-44
2021/07/09 00:41:34;;;;;;;3.95;2.50;;;;;;;18.76;64.91;101491.84;5048101;28;20056;-47
2021/07/09 00:44:01;;;;;;;3.53;2.28;;;;;;;18.75;64.76;101495.81;5049380;28;20048;-45
2021/07/09 00:46:40;;;;;;;3.20;2.00;;;;;;;18.76;65.30;101491.03;5048601;28;20056;-48
2021/07/09 00:49:09;;;;;;;5.15;2.60;;;;;;;18.74;65.13;101488.59;5049918;28;20044;-43
2021/07/09 00:51:36;;;;;;;4.10;2.65;;;;;;;18.73;65.03;101492.59;5049763;28;21827;-43
2021/07/09 00:54:03;;;;;;;4.22;2.67;;;;;;;18.69;65.17;101493.75;5049114;28;20060;-45
2021/07/09 00:56:31;;;;;;;4.72;2.08;;;;;;;18.72;65.41;101496.59;5050722;28;20127;-45
2021/07/09 00:59:00;;;;;;;4.22;2.42;;;;;;;18.74;65.39;101493.41;5051143;28;20076;-49
2021/07/09 01:01:27;;;;;;;3.20;2.30;;;;;;;18.75;65.39;101487.41;5048317;28;20064;-45
2021/07/09 01:03:54;;;;;;;2.90;2.47;;;;;;;18.81;65.32;101488.69;5048412;28;20053;-44
2021/07/09 01:06:21;;;;;;;3.40;2.28;;;;;;;18.84;64.88;101487.94;5050323;28;20056;-45
2021/07/09 01:08:47;;;;;;;6.65;2.35;;;;;;;18.76;65.20;101489.03;5048927;28;20171;-43
2021/07/09 01:11:14;;;;;;;6.38;2.35;;;;;;;18.78;65.29;101492.25;5049505;28;20048;-44
2021/07/09 01:13:42;;;;;;;3.40;2.75;;;;;;;18.80;64.87;101486.25;5046876;28;20059;-44
2021/07/09 01:16:11;;;;;;;5.10;4.60;;;;;;;18.76;64.78;101486.22;5049646;28;20051;-45
2021/07/09 01:18:39;;;;;;;4.38;2.58;;;;;;;18.71;64.83;101480.97;5049104;28;20869;-48
2021/07/09 01:21:09;;;;;;;15.48;3.40;;;;;;;18.70;65.00;101482.16;5048927;28;20144;-43
2021/07/09 01:23:38;;;;;;;4.75;3.40;;;;;;;18.68;64.72;101480.91;5051022;28;20113;-43
2021/07/09 01:26:06;;;;;;;4.93;3.10;;;;;;;18.63;64.77;101476.47;5047345;28;20072;-43
2021/07/09 01:28:33;;;;;;;5.20;2.88;;;;;;;18.59;64.97;101474.78;5050661;28;20052;-48
2021/07/09 01:31:00;;;;;;;8.07;5.00;;;;;;;18.55;64.81;101477.56;5049251;28;20044;-44
2021/07/09 01:33:28;;;;;;;7.63;4.63;;;;;;;18.48;65.07;101485.84;5046831;28;20094;-43
2021/07/09 01:35:55;;;;;;;9.52;6.53;;;;;;;18.42;65.33;101475.34;5048386;28;20057;-45
2021/07/09 01:38:22;;;;;;;8.77;6.30;;;;;;;18.39;65.71;101481.72;5049186;28;20040;-43
2021/07/09 01:40:49;;;;;;;6.78;4.85;;;;;;;18.39;65.93;101482.53;5048419;28;20499;-50
2021/07/09 01:43:16;;;;;;;7.50;5.07;;;;;;;18.41;65.91;101480.13;5048252;28;20052;-51
2021/07/09 01:45:43;;;;;;;7.63;5.30;;;;;;;18.41;66.17;101480.13;5047789;28;20057;-45
2021/07/09 01:48:10;;;;;;;8.52;5.90;;;;;;;18.42;66.33;101478.97;5046042;28;20138;-48
2021/07/09 01:50:37;;;;;;;6.90;5.18;;;;;;;18.44;66.33;101481.38;5047169;28;20060;-46
2021/07/09 01:53:04;;;;;;;7.28;5.45;;;;;;;18.41;66.74;101477.34;5047018;28;20147;-45
2021/07/09 01:55:31;;;;;;;12.15;6.38;;;;;;;18.38;67.02;101475.28;5048736;28;20140;-49
2021/07/09 01:57:57;;;;;;;7.28;5.45;;;;;;;18.35;67.33;101481.66;5048587;28;20933;-43
2021/07/09 02:00:26;;;;;;;7.47;4.70;;;;;;;18.32;67.57;101482.41;5048278;28;20059;-45
2021/07/09 02:02:53;;;;;;;6.35;4.70;;;;;;;18.29;67.71;101466.38;5048424;28;20066;-43
2021/07/09 02:05:22;;;;;;;6.93;4.80;;;;;;;18.30;68.06;101484.78;5047250;28;20071;-44
2021/07/09 02:07:55;;;;;;;6.82;4.38;;;;;;;18.29;68.48;101473.97;5048512;28;20535;-49
2021/07/09 02:10:26;;;;;;;8.68;4.63;;;;;;;18.30;68.21;101472.75;5048476;28;20041;-46
2021/07/09 02:12:54;;;;;;;6.27;4.83;;;;;;;18.30;68.19;101472.75;5028337;28;20056;-49
2021/07/09 02:15:29;;;;;;;6.78;4.55;;;;;;;18.25;68.93;101482.31;5048248;28;20392;-44
2021/07/09 02:17:57;;;;;;;5.70;4.43;;;;;;;18.24;68.73;101477.91;5047809;28;20059;-45
2021/07/09 02:20:26;;;;;;;7.95;4.40;;;;;;;18.27;68.85;101479.94;5047825;28;20049;-43
2021/07/09 02:22:58;;;;;;;9.13;6.00;;;;;;;18.27;69.00;101465.91;5049079;28;20067;-43
2021/07/09 02:25:25;;;;;;;8.77;4.80;;;;;;;18.29;68.81;101466.38;5047818;28;20631;-49
2021/07/09 02:27:54;;;;;;;7.20;4.97;;;;;;;18.31;69.21;101464.00;5049893;28;20037;-46
2021/07/09 02:30:23;;;;;;;8.18;5.65;;;;;;;18.31;69.19;101464.00;5054261;28;20057;-47
2021/07/09 02:32:51;;;;;;;9.93;6.30;;;;;;;18.23;69.29;101463.09;5049113;28;20056;-44
2021/07/09 02:35:20;;;;;;;9.90;6.97;;;;;;;18.19;69.63;101459.41;5047811;28;20055;-44
2021/07/09 02:37:48;;;;;;;12.15;6.65;;;;;;;18.17;69.57;101466.59;5045502;28;20568;-44
2021/07/09 02:40:18;;;;;;;12.52;7.30;;;;;;;18.19;69.91;101458.59;5046804;28;20045;-46
2021/07/09 02:42:47;;;;;;;10.93;6.47;;;;;;;18.21;69.63;101453.44;5048741;28;21938;-43
2021/07/09 02:45:17;;;;;;;9.25;7.05;;;;;;;18.18;69.86;101459.81;5049030;28;20103;-43
2021/07/09 02:47:44;;;;;;;10.52;7.47;;;;;;;18.14;69.99;101450.53;5047547;28;20143;-49
2021/07/09 02:50:15;;;;;;;8.55;6.68;;;;;;;18.09;70.19;101445.25;5047459;28;20044;-49
2021/07/09 02:52:41;;;;;;;8.75;6.47;;;;;;;18.08;70.34;101452.06;5048317;28;20079;-44
2021/07/09 02:55:10;;;;;;;12.15;7.18;;;;;;;18.08;70.21;101450.03;5048764;28;20494;-46
2021/07/09 02:57:38;;;;;;;11.73;7.47;;;;;;;18.10;70.19;101441.28;5047135;28;20066;-44
2021/07/09 03:00:08;;;;;;;9.32;6.97;;;;;;;18.10;70.36;101435.66;5048357;28;20052;-47
2021/07/09 03:02:35;;;;;;;12.63;7.82;;;;;;;18.09;70.32;101436.84;5046154;28;20053;-46
2021/07/09 03:05:03;;;;;;;11.30;6.93;;;;;;;18.11;70.31;101442.88;5029541;28;20556;-44
2021/07/09 03:07:30;;;;;;;14.32;7.82;;;;;;;18.13;70.32;101443.31;5046271;28;20063;-51
2021/07/09 03:09:57;;;;;;;10.48;7.20;;;;;;;18.14;70.32;101439.31;5047000;28;20053;-44
2021/07/09 03:12:23;;;;;;;11.68;7.40;;;;;;;18.12;70.45;101438.91;5048612;28;20045;-46
2021/07/09 03:14:50;;;;;;;12.82;6.85;;;;;;;18.13;70.37;101437.72;5046449;28;20063;-44
2021/07/09 03:17:18;;;;;;;11.32;6.93;;;;;;;18.12;70.50;101427.69;5048448;28;20080;-47
2021/07/09 03:19:44;;;;;;;10.32;6.63;;;;;;;18.11;70.56;101428.88;5049541;28;20064;-44
2021/07/09 03:22:11;;;;;;;12.85;7.63;;;;;;;18.08;70.66;101422.03;5047422;28;20403;-46
2021/07/09 03:24:38;;;;;;;11.13;5.90;;;;;;;18.02;70.92;101417.97;5046738;28;20394;-46
2021/07/09 03:27:06;;;;;;;10.32;6.07;;;;;;;17.98;71.13;101416.28;5046754;28;20537;-43
2021/07/09 03:29:32;;;;;;;10.77;6.72;;;;;;;18.05;70.99;101416.38;5048914;28;20048;-45
2021/07/09 03:31:59;;;;;;;15.35;6.55;;;;;;;18.09;70.87;101420.03;5046712;28;20037;-45
2021/07/09 03:34:26;;;;;;;13.10;6.88;;;;;;;18.11;70.74;101412.03;5047431;28;20060;-44
2021/07/09 03:36:53;;;;;;;15.50;7.57;;;;;;;18.10;70.49;101411.25;5045117;28;20048;-51
2021/07/09 03:39:20;;;;;;;13.40;7.05;;;;;;;18.12;70.25;101403.28;5046656;28;20460;-44
2021/07/09 03:41:47;;;;;;;11.73;6.82;;;;;;;18.11;70.23;101414.84;5051030;28;20057;-45
2021/07/09 03:44:14;;;;;;;11.52;7.38;;;;;;;18.08;70.42;101412.84;5032435;28;20134;-43
2021/07/09 03:46:41;;;;;;;15.27;7.80;;;;;;;18.05;70.42;101413.59;5050641;28;20049;-44
2021/07/09 03:49:08;;;;;;;13.55;7.28;;;;;;;17.97;70.49;101404.28;5049491;28;20143;-43
2021/07/09 03:51:37;;;;;;;13.60;6.75;;;;;;;17.96;70.77;101407.44;5051112;28;20052;-47
2021/07/09 03:54:05;;;;;;;9.82;6.22;;;;;;;17.97;70.72;101403.47;5050443;28;20045;-45
2021/07/09 03:56:33;;;;;;;9.50;6.72;;;;;;;17.96;70.84;101408.25;5051346;28;20130;-44
2021/07/09 03:59:01;;;;;;;15.88;6.95;;;;;;;17.94;71.00;101398.63;5052067;28;20056;-44
2021/07/09 04:01:28;;;;;;;11.10;6.68;;;;;;;17.93;71.02;101399.78;5052199;28;20053;-43
2021/07/09 04:03:55;;;;;;;8.45;5.75;;;;;;;17.93;71.04;101395.00;5050728;28;20064;-44
2021/07/09 04:06:22;;;;;;;12.27;7.60;;;;;;;17.87;71.25;101390.13;5051145;28;20102;-46
2021/07/09 04:08:49;;;;;;;7.32;5.65;;;;;;;17.89;71.29;101390.53;5050092;28;20051;-45
2021/07/09 04:11:17;;;;;;;8.77;5.97;;;;;;;17.93;70.91;101397.00;5051199;28;20117;-48
2021/07/09 04:13:44;;;;;;;9.52;5.68;;;;;;;17.95;70.70;101381.41;5050700;28;20049;-43
2021/07/09 04:16:11;;;;;;;10.25;5.95;;;;;;;17.97;70.50;101392.25;5051835;28;20053;-45
2021/07/09 04:18:40;;;;;;;7.55;5.82;;;;;;;17.96;70.65;101385.84;5050128;28;20071;-44
2021/07/09 04:21:07;;;;;;;8.63;6.20;;;;;;;17.91;70.71;101390.97;5050731;28;20045;-47
2021/07/09 04:23:34;;;;;;;9.32;5.20;;;;;;;17.92;70.68;101393.41;5047880;28;20134;-43
2021/07/09 04:26:00;;;;;;;6.68;4.95;;;;;;;17.93;70.68;101388.59;5050275;28;20191;-51
2021/07/09 04:28:28;;;;;;;5.90;4.82;;;;;;;17.91;70.83;101383.38;5050037;28;20427;-43
2021/07/09 04:30:55;;;;;;;6.57;4.70;;;;;;;17.91;70.81;101385.38;5048380;28;20120;-50
2021/07/09 04:33:23;;;;;;;6.00;4.63;;;;;;;17.89;70.99;101380.16;5032597;28;20045;-47
2021/07/09 04:35:50;;;;;;;7.65;5.18;;;;;;;17.86;70.84;101392.13;5032459;28;20059;-50
2021/07/09 04:38:19;;;;;;;6.78;4.55;;;;;;;17.80;71.20;101385.22;5050501;28;20057;-51
2021/07/09 04:40:46;;;;;;;7.60;4.70;;;;;;;17.74;71.44;101395.13;5050505;28;20045;-50
2021/07/09 04:43:14;;;;;;;6.32;5.13;;;;;;;17.72;71.66;101396.69;5032400;28;20118;-45
2021/07/09 04:45:42;;;;;;;8.60;5.40;;;;;;;17.72;71.53;101396.69;5048904;28;20062;-46
2021/07/09 04:48:10;;;;;;;5.53;4.38;;;;;;;17.68;71.65;101388.25;5048756;28;20055;-45
2021/07/09 04:50:37;;;;;;;7.45;5.30;;;;;;;17.68;71.82;101391.06;5050995;28;20408;-51
2021/07/09 04:53:04;;;;;;;6.68;4.90;;;;;;;17.73;71.71;101395.50;5030823;28;20045;-44
2021/07/09 04:55:31;;;;;;;7.50;5.65;;;;;;;17.74;71.56;101397.16;5050822;28;20060;-43
2021/07/09 04:57:57;;;;;;;7.30;5.70;;;;;;;17.76;71.66;101403.97;5048972;28;20057;-47
2021/07/09 05:00:24;;;;;;;7.43;5.55;;;;;;;17.71;71.45;101409.09;5050163;28;20084;-44
2021/07/09 05:02:51;;;;;;;5.32;4.72;;;;;;;17.72;71.64;101405.09;5049684;28;20501;-46
2021/07/09 05:05:17;;;;;;;5.85;4.72;;;;;;;17.72;71.66;101396.69;5047756;28;20449;-43
2021/07/09 05:07:45;;;;;;;7.40;5.18;;;;;;;17.71;71.62;101400.69;5050054;28;20401;-43
2021/07/09 05:10:12;;;;;;;8.45;5.45;;;;;;;17.63;71.73;101406.16;5045880;28;20139;-43
2021/07/09 05:12:39;;;;;;;8.05;4.22;;;;;;;17.58;72.01;101400.88;5050359;28;20048;-44
2021/07/09 05:15:06;;;;;;;5.82;4.88;;;;;;;17.51;72.34;101403.56;5049115;28;20070;-44
2021/07/09 05:17:34;;;;;;;6.38;5.13;;;;;;;17.47;72.40;101399.88;5050756;28;20048;-44
2021/07/09 05:20:03;;;;;;;9.23;5.35;;;;;;;17.46;72.41;101397.47;5048143;28;20041;-43
2021/07/09 05:22:31;;;;;;;7.75;5.28;;;;;;;17.40;72.72;101396.16;5049014;28;20053;-48
2021/07/09 05:24:58;;;;;;;8.82;6.03;;;;;;;17.35;72.69;101400.09;5050637;28;20056;-45
2021/07/09 05:27:28;;;;;;;8.07;5.30;;;;;;;17.24;73.06;101401.91;5048110;28;20048;-43
2021/07/09 05:29:55;;;;;;;7.32;5.40;;;;;;;17.23;73.10;101402.31;5050635;28;20652;-43
2021/07/09 05:32:25;;;;;;;22.25;7.00;;;;;;;17.17;73.32;101407.41;5049850;28;20063;-43
2021/07/09 05:34:54;;;;;;;9.43;5.82;;;;;;;17.15;73.30;101401.38;5049065;28;20052;-47
2021/07/09 05:37:22;;;;;;;8.10;6.05;;;;;;;17.14;73.28;101405.34;5049010;28;20045;-48
2021/07/09 05:39:49;;;;;;;11.63;5.65;;;;;;;17.14;73.38;101404.53;5047007;28;20084;-43
2021/07/09 05:42:16;;;;;;;8.70;5.95;;;;;;;17.16;73.35;101405.78;5047113;28;20056;-43
2021/07/09 05:44:43;;;;;;;7.35;5.60;;;;;;;17.22;73.22;101404.28;5049961;28;20499;-46
2021/07/09 05:47:12;;;;;;;11.65;7.57;;;;;;;17.24;73.11;101403.91;5048756;28;20501;-44
2021/07/09 05:49:39;;;;;;;10.23;7.03;;;;;;;17.27;72.99;101403.16;5029334;28;20098;-43
2021/07/09 05:52:07;;;;;;;12.43;6.50;;;;;;;17.27;72.89;101395.56;5049475;28;20052;-51
2021/07/09 05:54:37;;;;;;;8.70;5.95;;;;;;;17.22;72.88;101401.47;5048710;28;20397;-44
2021/07/09 05:57:04;;;;;;;13.95;6.72;;;;;;;17.21;72.90;101402.66;5047488;28;20048;-43
2021/07/09 05:59:32;;;;;;;8.57;5.25;;;;;;;17.18;72.84;101399.81;5049515;28;20111;-43
2021/07/09 06:01:59;;;;;;;7.30;5.38;;;;;;;17.12;72.73;101399.31;5048193;28;20064;-46
2021/07/09 06:04:26;;;;;;;9.80;4.70;;;;;;;17.16;72.63;101408.56;5046080;28;20502;-44
2021/07/09 06:06:53;;;;;;;5.78;4.53;;;;;;;17.18;72.47;101406.22;5047743;28;20387;-44
2021/07/09 06:09:20;;;;;;;4.57;3.67;;;;;;;17.22;72.12;101407.09;5047094;28;20794;-46
2021/07/09 06:11:47;;;;;;;10.35;5.03;;;;;;;17.24;71.84;101404.72;5030258;28;20098;-45
2021/07/09 06:14:14;;;;;;;6.00;3.53;;;;;;;17.25;71.59;101405.53;5048241;28;20045;-46
2021/07/09 06:16:41;;;;;;;6.35;2.97;;;;;;;17.22;71.24;101412.69;5046326;28;20118;-49
2021/07/09 06:19:08;;;;;;;3.00;2.67;;;;;;;17.26;70.73;101410.72;5047674;28;20048;-44
2021/07/09 06:21:35;;;;;;;7.85;3.20;;;;;;;17.30;70.71;101406.03;5047538;28;20063;-44
2021/07/09 06:24:02;;;;;;;5.93;3.30;;;;;;;17.30;70.51;101403.22;5049567;28;20131;-43
2021/07/09 06:26:29;;;;;;;6.05;2.70;;;;;;;17.30;70.34;101408.81;5046165;28;20055;-51
2021/07/09 06:28:55;;;;;;;6.13;2.88;;;;;;;17.30;70.12;101408.00;5045852;28;20091;-44
2021/07/09 06:31:23;;;;;;;5.18;3.03;;;;;;;17.38;69.85;101412.53;5046255;28;20151;-45
2021/07/09 06:33:50;;;;;;;4.15;2.78;;;;;;;17.46;69.49;101400.28;5046770;28;20463;-44
2021/07/09 06:36:17;;;;;;;6.97;2.90;;;;;;;17.54;69.25;101402.03;5028871;28;20052;-43
2021/07/09 06:38:45;;;;;;;7.03;3.22;;;;;;;17.52;69.07;101402.38;5044422;28;20072;-45
2021/07/09 06:41:12;;;;;;;6.88;3.60;;;;;;;17.54;68.98;101400.03;5045281;28;20054;-43
2021/07/09 06:43:39;;;;;;;4.57;2.90;;;;;;;17.55;68.90;101404.44;5047328;28;20052;-42
2021/07/09 06:46:05;;;;;;;3.42;2.65;;;;;;;17.53;68.96;101411.59;5047474;28;20080;-52
2021/07/09 06:48:32;;;;;;;5.95;3.20;;;;;;;17.47;68.98;101405.47;5030954;28;20044;-44
2021/07/09 06:50:59;;;;;;;6.47;3.15;;;;;;;17.51;68.93;101413.94;5045142;28;20046;-44
2021/07/09 06:53:26;;;;;;;8.27;3.10;;;;;;;17.55;68.81;101420.47;5046370;28;20583;-49
2021/07/09 06:55:53;;;;;;;6.50;3.08;;;;;;;17.57;68.54;101407.69;5046173;28;20800;-44
2021/07/09 06:58:20;;;;;;;8.38;3.13;;;;;;;17.56;68.63;101402.47;5030327;28;20049;-43
2021/07/09 07:00:49;;;;;;;6.13;3.85;;;;;;;17.53;68.40;101412.41;5047611;28;20557;-46
2021/07/09 07:03:16;;;;;;;5.53;2.85;;;;;;;17.51;68.67;101397.97;5047289;28;20060;-47
2021/07/09 07:05:43;;;;;;;9.10;3.75;;;;;;;17.51;68.54;101397.16;5047369;28;20486;-43
2021/07/09 07:08:18;;;;;;;4.38;2.88;;;;;;;17.54;68.54;101399.22;5028413;28;20145;-47
2021/07/09 07:10:46;;;;;;;5.13;3.13;;;;;;;17.59;68.60;101390.50;5048706;28;20048;-44
2021/07/09 07:13:13;;;;;;;4.18;2.83;;;;;;;17.61;68.17;101402.94;5027662;28;20051;-43
2021/07/09 07:15:40;;;;;;;5.32;3.15;;;;;;;17.56;68.30;101394.88;5048393;28;20135;-44
2021/07/09 07:18:08;;;;;;;7.50;3.75;;;;;;;17.58;68.20;101400.09;5050818;28;20037;-43
2021/07/09 07:20:41;;;;;;;6.28;3.33;;;;;;;17.59;68.17;101396.91;5049287;28;20179;-50
2021/07/09 07:23:09;;;;;;;3.83;3.15;;;;;;;17.64;68.35;101405.00;5031818;28;20053;-47
2021/07/09 07:25:37;;;;;;;8.05;3.63;;;;;;;17.69;68.00;101408.63;5049482;28;20565;-43
2021/07/09 07:28:06;;;;;;;12.48;4.63;;;;;;;17.66;67.84;101403.81;5051587;28;20149;-43
2021/07/09 07:30:33;;;;;;;7.70;3.90;;;;;;;17.72;67.66;101405.09;5051067;28;20051;-46
2021/07/09 07:33:00;;;;;;;5.38;3.38;;;;;;;17.76;67.68;101409.59;5051810;28;20048;-44
2021/07/09 07:35:28;;;;;;;9.82;3.05;;;;;;;17.86;67.48;101416.50;5051293;28;20056;-44
2021/07/09 07:37:54;;;;;;;5.57;3.58;;;;;;;18.00;67.46;101408.31;5051841;28;20056;-52
2021/07/09 07:40:21;;;;;;;7.15;3.47;;;;;;;18.11;67.41;101415.66;5049165;28;20144;-49
2021/07/09 07:42:48;;;;;;;8.02;3.25;;;;;;;18.18;66.95;101423.38;5049882;28;20049;-46
2021/07/09 07:45:16;;;;;;;10.57;4.13;;;;;;;18.21;66.52;101419.81;5048504;28;20067;-46
2021/07/09 07:47:44;;;;;;;10.30;3.58;;;;;;;18.16;66.41;101425.75;5049772;28;20482;-44
2021/07/09 07:50:13;;;;;;;6.72;3.47;;;;;;;18.14;66.48;101420.50;5047558;28;20139;-44
2021/07/09 07:52:40;;;;;;;8.60;4.00;;;;;;;18.18;66.50;101414.97;5050514;28;20053;-53
2021/07/09 07:55:07;;;;;;;8.23;4.55;;;;;;;18.27;66.47;101424.69;5051388;28;20134;-45
2021/07/09 07:57:34;;;;;;;9.45;4.50;;;;;;;18.40;66.13;101416.81;5049890;28;20056;-44
2021/07/09 08:00:00;;;;;;;5.90;3.17;;;;;;;18.51;66.12;101422.59;5048619;28;20141;-44
2021/07/09 08:02:27;;;;;;;4.82;3.80;;;;;;;18.55;65.91;101418.66;5049839;28;20493;-44
2021/07/09 08:04:58;;;;;;;5.07;3.00;;;;;;;18.59;65.65;101419.50;5050382;28;20053;-49
2021/07/09 08:07:24;;;;;;;5.75;2.88;;;;;;;18.67;65.62;101426.00;5051429;28;20127;-48
2021/07/09 08:09:52;;;;;;;7.03;3.67;;;;;;;18.75;65.30;101427.69;5049908;28;20064;-45
2021/07/09 08:12:18;;;;;;;7.93;3.70;;;;;;;18.71;65.36;101427.66;5050930;28;20055;-44
2021/07/09 08:14:45;;;;;;;6.00;3.85;;;;;;;18.61;65.03;101430.34;5031308;28;20051;-46
2021/07/09 08:17:13;;;;;;;8.02;3.17;;;;;;;18.52;65.13;101432.63;5038993;28;20128;-47
2021/07/09 08:19:43;;;;;;;7.07;3.20;;;;;;;18.46;65.33;101429.31;5036925;28;20068;-44
2021/07/09 08:22:12;;;;;;;4.13;3.00;;;;;;;18.41;65.23;101420.44;5045477;28;20798;-46
2021/07/09 08:24:38;;;;;;;7.68;3.20;;;;;;;18.42;65.22;101419.25;5046103;28;20140;-45
2021/07/09 08:27:05;;;;;;;6.18;3.33;;;;;;;18.37;65.23;101417.63;5046246;28;20051;-52
2021/07/09 08:29:32;;;;;;;8.75;4.32;;;;;;;18.32;64.94;101415.13;5037263;28;20072;-44
2021/07/09 08:32:00;;;;;;;4.47;3.22;;;;;;;18.33;65.18;101413.13;5041562;28;20056;-53
2021/07/09 08:34:27;;;;;;;9.32;3.22;;;;;;;18.32;65.17;101414.34;5040929;28;20398;-46
2021/07/09 08:36:54;;;;;;;5.97;3.70;;;;;;;18.25;65.67;101406.63;5045046;28;20167;-46
2021/07/09 08:39:21;;;;;;;4.10;3.15;;;;;;;18.25;65.84;101406.63;5041255;28;20056;-44
2021/07/09 08:41:49;;;;;;;9.18;3.92;;;;;;;18.23;65.77;101411.81;5016798;28;20131;-44
2021/07/09 08:44:17;;;;;;;8.65;4.20;;;;;;;18.19;65.93;101411.75;5031263;28;20139;-45
2021/07/09 08:46:44;;;;;;;10.93;3.53;;;;;;;18.12;66.07;101410.88;5040737;28;20159;-51
2021/07/09 08:49:16;;;;;;;10.02;3.60;;;;;;;18.03;66.22;101405.53;5025819;28;20049;-49
2021/07/09 08:51:44;;;;;;;8.45;3.55;;;;;;;18.00;66.57;101403.50;5037904;28;20494;-42
2021/07/09 08:54:13;;;;;;;11.68;4.22;;;;;;;17.96;66.57;101407.44;5017183;28;20051;-47
2021/07/09 08:56:41;;;;;;;6.40;3.17;;;;;;;17.88;66.47;101406.53;5040924;28;20083;-43
2021/07/09 08:59:08;;;;;;;5.15;3.25;;;;;;;17.83;66.31;101408.88;5038740;28;20551;-51
2021/07/09 09:01:57;;;;;;;7.10;3.00;;;;;;;17.75;65.32;101407.13;5034486;28;20060;-46
2021/07/09 09:04:32;;;;;;;4.65;2.47;;;;;;;17.65;64.88;101397.41;5037197;28;20049;-45
2021/07/09 09:07:01;;;;;;;3.25;2.15;;;;;;;17.56;64.78;101406.06;5043686;28;20053;-45
2021/07/09 09:09:28;;;;;;;10.43;4.35;;;;;;;17.59;64.99;101408.13;5036046;28;20049;-47
2021/07/09 09:12:08;;;;;;;4.28;2.70;;;;;;;17.61;64.46;101402.94;5038948;28;20100;-46
2021/07/09 09:14:50;;;;;;;2.65;2.00;;;;;;;17.59;64.20;101405.31;5040547;28;20080;-51
2021/07/09 09:17:36;;;;;;;5.50;2.63;;;;;;;17.61;64.03;101396.53;5042064;28;20140;-50
2021/07/09 09:20:05;;;;;;;4.22;2.20;;;;;;;17.61;64.06;101396.53;5042582;28;20102;-44
2021/07/09 09:22:38;;;;;;;3.75;3.35;;;;;;;17.60;64.05;101406.94;5040921;28;20056;-45
2021/07/09 09:25:07;;;;;;;5.05;2.13;;;;;;;17.62;63.89;101400.97;5039321;28;21884;-48
2021/07/09 09:27:33;;;;;;;3.17;1.88;;;;;;;17.64;63.64;101402.19;5037712;28;20049;-44
2021/07/09 09:30:09;;;;;;;3.90;2.30;;;;;;;17.70;63.64;101405.47;5041215;28;20057;-48
2021/07/09 09:32:48;;;;;;;4.35;1.92;;;;;;;17.74;63.49;101397.16;5037685;28;20059;-46
2021/07/09 09:35:30;;;;;;;3.97;2.22;;;;;;;17.87;63.08;101392.94;5041115;28;20041;-44
2021/07/09 09:37:59;;;;;;;3.00;2.10;;;;;;;17.95;63.56;101400.25;5038688;28;20143;-51
2021/07/09 09:40:28;;;;;;;2.80;1.60;;;;;;;18.08;63.14;101396.03;5042363;28;20052;-44
2021/07/09 09:42:56;;;;;;;4.28;2.08;;;;;;;18.12;62.97;101403.28;5040643;28;20401;-44
2021/07/09 09:45:26;;;;;;;3.30;1.95;;;;;;;18.18;62.81;101398.97;5038040;28;20132;-52
2021/07/09 09:48:04;;;;;;;4.00;1.92;;;;;;;18.21;62.25;101394.59;5039664;28;21068;-46
2021/07/09 09:50:30;;;;;;;1.58;1.45;;;;;;;18.25;62.46;101403.84;5022245;28;20063;-46
2021/07/09 09:52:57;;;;;;;3.97;2.00;;;;;;;18.29;62.64;101393.50;5042447;28;20132;-45
2021/07/09 09:55:32;;;;;;;1.75;1.52;;;;;;;18.35;62.25;101400.34;5040654;28;20812;-45
2021/07/09 09:58:14;;;;;;;2.85;2.03;;;;;;;18.46;61.76;101398.47;5040245;28;20061;-48
2021/07/09 10:00:44;;;;;;;3.28;2.25;;;;;;;18.53;61.82;101381.75;5034504;28;20391;-49
2021/07/09 10:03:18;;;;;;;2.20;1.98;;;;;;;18.64;61.92;101391.09;5039724;28;20049;-48
2021/07/09 10:05:49;;;;;;;2.33;1.75;;;;;;;18.70;61.26;101397.19;5038686;28;20048;-47
2021/07/09 10:08:19;;;;;;;3.47;2.15;;;;;;;18.72;61.10;101398.41;5039727;28;20047;-44
2021/07/09 10:10:47;;;;;;;3.65;2.10;;;;;;;18.80;61.17;101402.91;5043635;28;20059;-45
2021/07/09 10:13:16;;;;;;;4.93;2.15;;;;;;;18.82;61.14;101399.72;5039208;28;20048;-47
2021/07/09 10:15:44;;;;;;;2.63;1.90;;;;;;;18.90;61.09;101398.59;5039830;28;20479;-44
2021/07/09 10:18:14;;;;;;;1.83;1.50;;;;;;;19.02;60.55;101403.91;5037512;28;20072;-55
2021/07/09 10:20:45;;;;;;;5.80;2.00;;;;;;;19.13;60.35;101406.81;5037646;28;20878;-49
2021/07/09 10:23:17;;;;;;;;;;;;;;;19.17;60.23;101402.84;5037005;28;20057;-43
2021/07/09 10:25:49;;;;;;;1.57;1.47;;;;;;;19.21;60.09;101397.28;5019950;28;19932;-44
2021/07/09 10:28:19;;;;;;;2.17;1.98;;;;;;;19.29;60.30;101404.56;5038052;28;20298;-45
2021/07/09 10:30:46;;;;;;;3.65;2.30;;;;;;;19.40;60.22;101397.88;5026534;28;20143;-45
2021/07/09 10:33:40;;;;;;;7.38;2.05;;;;;;;19.51;59.72;101399.97;5020946;28;20055;-45
2021/07/09 10:36:28;;;;;;;4.20;2.03;;;;;;;19.53;59.68;101394.75;5033336;28;20421;-45
2021/07/09 10:38:55;;;;;;;5.60;2.30;;;;;;;19.57;60.28;101399.19;5038822;28;20049;-44
2021/07/09 10:41:24;;;;;;;4.10;1.70;;;;;;;19.65;59.83;101392.44;5036314;28;20064;-53
2021/07/09 10:44:15;;;;;;;4.70;1.50;;;;;;;19.59;59.33;101382.75;5037386;28;20084;-43
2021/07/09 10:46:45;;;;;;;1.80;1.65;;;;;;;19.54;59.59;101390.75;5035191;28;20144;-46
2021/07/09 10:49:50;;;;;;;2.33;1.98;;;;;;;19.39;58.89;101389.81;5037452;28;20137;-50
2021/07/09 10:52:43;;;;;;;2.83;1.98;;;;;;;19.25;59.69;101382.06;5035854;28;20080;-44
2021/07/09 10:55:25;;;;;;;2.20;1.77;;;;;;;19.18;60.02;101384.00;5035755;28;20136;-47
2021/07/09 10:58:05;;;;;;;3.30;1.48;;;;;;;19.16;59.78;101380.78;5035917;28;20044;-50
2021/07/09 11:00:49;;;;;;;3.85;1.48;;;;;;;19.13;59.73;101381.56;5035100;28;20804;-44
2021/07/09 11:03:22;;;;;;;3.10;1.40;;;;;;;19.05;59.50;101388.31;5040160;28;20055;-51
2021/07/09 11:05:59;;;;;;;2.15;1.70;;;;;;;19.03;60.08;101382.28;5039610;28;20049;-46
2021/07/09 11:08:34;;;;;;;5.57;1.63;;;;;;;19.00;59.80;101383.88;5036607;28;20052;-49
2021/07/09 11:11:13;;;;;;;5.72;1.88;;;;;;;19.00;60.08;101380.25;5035742;28;20159;-44
2021/07/09 11:13:51;;;;;;;4.53;2.00;;;;;;;19.06;60.05;101384.31;5035892;28;20056;-42
2021/07/09 11:16:31;;;;;;;6.88;1.88;;;;;;;19.08;59.55;101373.50;5019664;28;20049;-44
2021/07/09 11:19:07;;;;;;;1.98;1.48;;;;;;;19.10;59.60;101371.09;5039150;28;20080;-46
2021/07/09 11:21:39;;;;;;;4.03;1.90;;;;;;;19.21;59.84;101372.00;5039806;28;20126;-46
2021/07/09 11:24:20;;;;;;;1.65;1.50;;;;;;;19.40;59.23;101372.59;5019486;28;20480;-44
2021/07/09 11:27:00;;;;;;;4.28;1.67;;;;;;;19.52;59.18;101377.09;5038172;28;20118;-42
2021/07/09 11:29:40;;;;;;;4.53;1.42;;;;;;;19.59;59.02;101379.94;5037378;28;20092;-55
2021/07/09 11:32:18;;;;;;;4.65;1.25;;;;;;;19.73;58.74;101377.22;5038214;28;20220;-49
2021/07/09 11:34:47;;;;;;;4.32;1.63;;;;;;;19.81;58.70;101376.06;5036635;28;20577;-42